Jump to content

Robbie Garrett

Members
  • Content Count

    2,367
  • Joined

  • Last visited

  • Days Won

    1

Everything posted by Robbie Garrett

  1. EZY5034, Gatwick Director, Landing 26L no delay - leave timba radar heading 055*

  2. What a lovely evening in London, doubt it'll be that good when I fly to Goodwood tomorrow! GRRRR!

  3. Looking at MetCheck it says that London will have 300mph winds on Friday Gusting to 350mph, anybody fancy flying??

    1. PersianPaladin

      PersianPaladin

      Ah glorious Saturn!

    2. Paranoid

      Paranoid

      At that speed i doubt you'll have any choice but to fly...

    3. Robbie Garrett
    4. Show next comments  78 more
  4. Metoffice just confirmed, 30.3C for Gravesend Kent!

    1. Eugene

      Eugene

      Yes very impressive for 850's that aren't anything special.

    2. Weather-history

      Weather-history

      Hardly that unexpected Eugene.

    3. Summer Sun

      Summer Sun

      Exactly certainly when the bbc were showing 30c for the London area

  5. EGLL 011350Z 18012KT CAVOK 27/12 Q1012 NOSIG

×
×
  • Create New...